createdAt,value
2016-11-30T00:00:23.042Z,1.3
2016-11-30T00:01:38.023Z,1.27
2016-11-30T00:02:51.946Z,1.22
2016-11-30T00:04:06.272Z,1.16
2016-11-30T00:05:20.876Z,1.09
2016-11-30T00:06:35.049Z,1
2016-11-30T00:07:49.701Z,0.91
2016-11-30T00:09:03.411Z,0.85
2016-11-30T00:10:17.733Z,0.77
2016-11-30T00:11:32.407Z,0.7
2016-11-30T00:12:47.305Z,0.64
2016-11-30T00:14:01.415Z,0.61
2016-11-30T00:15:15.612Z,0.55
2016-11-30T00:16:29.601Z,0.53
2016-11-30T00:17:43.980Z,0.52
2016-11-30T00:18:57.893Z,0.51
2016-11-30T00:20:12.145Z,0.53
2016-11-30T00:21:26.463Z,0.55
2016-11-30T00:22:40.443Z,0.6
2016-11-30T00:23:54.673Z,0.65
2016-11-30T00:25:08.648Z,0.68
2016-11-30T00:26:22.954Z,0.73
2016-11-30T00:27:37.298Z,0.73
2016-11-30T00:28:51.129Z,0.69
2016-11-30T00:30:05.313Z,0.66
2016-11-30T00:31:19.764Z,0.62
2016-11-30T00:32:34.346Z,0.57
2016-11-30T00:33:48.308Z,0.53
2016-11-30T00:35:02.368Z,0.49
2016-11-30T00:36:17.019Z,0.44
2016-11-30T00:37:30.929Z,0.4
2016-11-30T00:38:45.544Z,0.39
2016-11-30T00:39:59.658Z,0.37
2016-11-30T00:41:13.508Z,0.34
2016-11-30T00:42:27.615Z,0.35
2016-11-30T00:43:42.050Z,0.37
2016-11-30T00:44:56.199Z,0.43
2016-11-30T00:46:10.291Z,0.46
2016-11-30T00:47:26.499Z,0.51
2016-11-30T00:48:40.784Z,0.52
2016-11-30T00:49:55.102Z,0.53
2016-11-30T00:51:10.143Z,0.57
2016-11-30T00:52:24.136Z,0.58
2016-11-30T00:53:38.133Z,0.61
2016-11-30T00:54:52.001Z,0.62
2016-11-30T00:56:06.814Z,0.61
2016-11-30T00:57:21.743Z,0.59
2016-11-30T00:58:35.845Z,0.55
2016-11-30T00:59:49.591Z,0.54
2016-11-30T01:01:03.845Z,0.54
2016-11-30T01:02:17.893Z,0.57
2016-11-30T01:03:32.635Z,0.6
2016-11-30T01:04:46.505Z,0.62
2016-11-30T01:06:00.771Z,0.63
2016-11-30T01:07:14.854Z,0.66
2016-11-30T01:08:29.163Z,0.68
2016-11-30T01:09:44.119Z,0.68
2016-11-30T01:10:58.563Z,0.7
2016-11-30T01:12:12.369Z,0.66
2016-11-30T01:13:26.329Z,0.65
2016-11-30T01:14:55.099Z,0.63
2016-11-30T01:16:09.933Z,0.63
2016-11-30T01:17:23.692Z,0.58
2016-11-30T01:18:37.798Z,0.48
2016-11-30T01:19:52.295Z,0.43
2016-11-30T01:21:06.197Z,0.38
2016-11-30T01:22:20.794Z,0.32
2016-11-30T01:23:35.295Z,0.28
2016-11-30T01:24:49.068Z,0.27
2016-11-30T01:26:03.068Z,0.26
2016-11-30T01:27:17.130Z,0.22
2016-11-30T01:29:00.838Z,0.18
2016-11-30T01:30:15.446Z,0.12
2016-11-30T01:33:27.583Z,0.07
2016-11-30T01:34:41.642Z,0.05
2016-11-30T01:35:56.630Z,0.02
2016-11-30T01:37:10.494Z,-0.05
2016-11-30T01:38:24.706Z,-0.12
2016-11-30T01:39:38.564Z,-0.18
2016-11-30T01:40:52.805Z,-0.23
2016-11-30T01:42:07.004Z,-0.26
2016-11-30T01:43:21.317Z,-0.28
2016-11-30T01:44:35.105Z,-0.28
2016-11-30T01:45:49.268Z,-0.31
2016-11-30T01:47:03.580Z,-0.33
2016-11-30T01:48:18.543Z,-0.34
2016-11-30T01:49:32.659Z,-0.32
2016-11-30T01:50:46.917Z,-0.31
2016-11-30T01:52:00.618Z,-0.3
2016-11-30T01:53:14.738Z,-0.28
2016-11-30T01:54:29.227Z,-0.24
2016-11-30T01:55:43.591Z,-0.21
2016-11-30T01:56:57.847Z,-0.17
2016-11-30T01:58:11.812Z,-0.15
2016-11-30T01:59:25.866Z,-0.13
2016-11-30T02:00:39.987Z,-0.12
2016-11-30T02:02:09.330Z,-0.14
2016-11-30T02:03:23.575Z,-0.17
2016-11-30T02:04:38.147Z,-0.22
2016-11-30T02:05:54.674Z,-0.28
2016-11-30T02:07:08.799Z,-0.33
2016-11-30T02:08:23.024Z,-0.41
2016-11-30T02:09:37.262Z,-0.47
2016-11-30T02:10:51.579Z,-0.5
2016-11-30T02:12:05.676Z,-0.53
2016-11-30T02:13:19.559Z,-0.56
2016-11-30T02:14:33.537Z,-0.59
2016-11-30T02:15:47.849Z,-0.61
2016-11-30T02:17:02.144Z,-0.61
2016-11-30T02:18:16.173Z,-0.63
2016-11-30T02:19:30.188Z,-0.63
2016-11-30T02:20:44.225Z,-0.6
2016-11-30T02:21:58.714Z,-0.55
2016-11-30T02:23:13.007Z,-0.53
2016-11-30T02:24:27.365Z,-0.53
2016-11-30T02:25:41.398Z,-0.55
2016-11-30T02:26:55.779Z,-0.61
2016-11-30T02:28:10.235Z,-0.66
2016-11-30T02:29:39.065Z,-0.71
2016-11-30T02:30:52.964Z,-0.75
2016-11-30T02:32:06.995Z,-0.81
2016-11-30T02:33:20.974Z,-0.87
2016-11-30T02:34:35.369Z,-0.93
2016-11-30T02:35:49.627Z,-0.95
2016-11-30T02:37:03.793Z,-0.94
2016-11-30T02:38:17.891Z,-0.91
2016-11-30T02:39:31.930Z,-0.86
2016-11-30T02:40:46.433Z,-0.84
2016-11-30T02:42:01.386Z,-0.84
2016-11-30T02:43:15.495Z,-0.81
2016-11-30T02:44:29.494Z,-0.77
2016-11-30T02:45:43.627Z,-0.75
2016-11-30T02:46:58.162Z,-0.74
2016-11-30T02:48:12.557Z,-0.75
2016-11-30T02:49:26.595Z,-0.76
2016-11-30T02:50:40.676Z,-0.78
2016-11-30T02:51:54.995Z,-0.79
2016-11-30T02:53:09.466Z,-0.84
2016-11-30T02:54:23.804Z,-0.88
2016-11-30T02:55:37.806Z,-0.9
2016-11-30T02:56:51.856Z,-0.93
2016-11-30T02:58:05.876Z,-0.92
2016-11-30T02:59:20.344Z,-0.9
2016-11-30T03:00:34.397Z,-0.85
2016-11-30T03:04:46.037Z,-0.68
2016-11-30T03:06:15.985Z,-0.68
2016-11-30T03:07:29.842Z,-0.67
2016-11-30T03:08:43.912Z,-0.69
2016-11-30T03:09:58.114Z,-0.7
2016-11-30T03:11:11.931Z,-0.7
2016-11-30T03:12:26.622Z,-0.71
2016-11-30T03:13:41.026Z,-0.7
2016-11-30T03:14:55.439Z,-0.71
2016-11-30T03:16:09.687Z,-0.71
2016-11-30T03:17:23.971Z,-0.69
2016-11-30T03:18:38.723Z,-0.66
2016-11-30T03:19:52.848Z,-0.64
2016-11-30T03:21:06.960Z,-0.63
2016-11-30T03:22:35.927Z,-0.6
2016-11-30T03:23:50.140Z,-0.57
2016-11-30T03:25:07.170Z,-0.54
2016-11-30T03:26:21.128Z,-0.53
2016-11-30T03:27:35.339Z,-0.55
2016-11-30T03:29:18.984Z,-0.61
2016-11-30T03:30:33.811Z,-0.65
2016-11-30T03:31:48.303Z,-0.69
2016-11-30T03:33:16.807Z,-0.78
2016-11-30T03:34:30.612Z,-0.84
2016-11-30T03:35:45.371Z,-0.9
2016-11-30T03:36:59.387Z,-0.94
2016-11-30T03:38:13.693Z,-0.99
2016-11-30T03:39:27.647Z,-1.03
2016-11-30T03:40:41.628Z,-1.07
2016-11-30T03:41:56.028Z,-1.12
2016-11-30T03:43:10.167Z,-1.14
2016-11-30T03:44:24.283Z,-1.2
2016-11-30T03:45:38.391Z,-1.2
2016-11-30T03:46:53.137Z,-1.22
2016-11-30T03:48:07.378Z,-1.21
2016-11-30T03:49:21.348Z,-1.2
2016-11-30T03:50:35.750Z,-1.17
2016-11-30T03:51:49.861Z,-1.15
2016-11-30T03:53:03.988Z,-1.14
2016-11-30T03:54:18.467Z,-1.16
2016-11-30T03:55:32.833Z,-1.2
2016-11-30T03:56:47.151Z,-1.23
2016-11-30T03:58:01.356Z,-1.26
2016-11-30T03:59:15.418Z,-1.27
2016-11-30T04:00:29.488Z,-1.28
2016-11-30T04:01:43.515Z,-1.29
2016-11-30T04:02:57.786Z,-1.31
2016-11-30T04:04:11.623Z,-1.34
2016-11-30T04:05:25.544Z,-1.37
2016-11-30T04:06:39.680Z,-1.4
2016-11-30T04:07:53.879Z,-1.41
2016-11-30T04:09:08.170Z,-1.41
2016-11-30T04:10:24.206Z,-1.4
2016-11-30T04:11:43.960Z,-1.41
2016-11-30T04:13:06.469Z,-1.39
2016-11-30T04:14:32.117Z,-1.37
2016-11-30T04:15:54.249Z,-1.34
2016-11-30T04:17:15.417Z,-1.3
2016-11-30T04:18:36.219Z,-1.25
2016-11-30T04:19:59.854Z,-1.22
2016-11-30T04:21:20.667Z,-1.21
2016-11-30T04:22:42.950Z,-1.21
2016-11-30T04:23:59.246Z,-1.21
2016-11-30T04:25:13.499Z,-1.23
2016-11-30T04:26:27.763Z,-1.25
2016-11-30T04:27:41.623Z,-1.28
2016-11-30T04:29:10.639Z,-1.28
2016-11-30T04:30:24.794Z,-1.28
2016-11-30T04:31:38.740Z,-1.27
2016-11-30T04:32:52.482Z,-1.29
2016-11-30T04:34:06.630Z,-1.33
2016-11-30T04:35:20.635Z,-1.37
2016-11-30T04:36:34.552Z,-1.4
2016-11-30T04:37:48.999Z,-1.43
2016-11-30T04:39:03.231Z,-1.48
2016-11-30T04:40:17.094Z,-1.56
2016-11-30T04:41:30.939Z,-1.62
2016-11-30T04:42:45.362Z,-1.65
2016-11-30T04:44:02.240Z,-1.65
2016-11-30T04:45:16.193Z,-1.63
2016-11-30T04:46:30.607Z,-1.6
2016-11-30T04:47:44.865Z,-1.6
2016-11-30T04:48:58.772Z,-1.63
2016-11-30T04:50:13.501Z,-1.62
2016-11-30T04:51:27.696Z,-1.62
2016-11-30T04:52:41.865Z,-1.62
2016-11-30T04:53:56.227Z,-1.62
2016-11-30T04:55:10.422Z,-1.64
2016-11-30T04:56:24.668Z,-1.65
2016-11-30T04:57:38.946Z,-1.68
2016-11-30T04:58:53.401Z,-1.72
2016-11-30T05:00:07.565Z,-1.77
2016-11-30T05:01:21.841Z,-1.83
2016-11-30T05:02:36.003Z,-1.88
2016-11-30T05:03:51.047Z,-1.99
2016-11-30T05:05:05.493Z,-2.03
2016-11-30T05:06:19.132Z,-2.09
2016-11-30T05:07:33.236Z,-2.11
2016-11-30T05:08:47.218Z,-2.11
2016-11-30T05:10:01.264Z,-2.15
2016-11-30T05:11:15.569Z,-2.13
2016-11-30T05:12:29.515Z,-2.15
2016-11-30T05:13:44.010Z,-2.14
2016-11-30T05:14:58.033Z,-2.14
2016-11-30T05:16:12.207Z,-2.12
2016-11-30T05:17:40.910Z,-2.09
2016-11-30T05:18:59.050Z,-2.08
2016-11-30T05:20:13.203Z,-2.08
2016-11-30T05:21:29.366Z,-2.07
2016-11-30T05:22:44.164Z,-2.09
2016-11-30T05:23:58.239Z,-2.11
2016-11-30T05:25:12.779Z,-2.11
2016-11-30T05:26:27.637Z,-2.14
2016-11-30T05:27:42.629Z,-2.14
2016-11-30T05:28:56.473Z,-2.14
2016-11-30T05:30:10.600Z,-2.13
2016-11-30T05:31:40.180Z,-2.16
2016-11-30T05:32:55.545Z,-2.18
2016-11-30T05:34:10.069Z,-2.26
2016-11-30T05:35:24.950Z,-2.34
2016-11-30T05:36:39.611Z,-2.37
2016-11-30T05:37:53.506Z,-2.41
2016-11-30T05:39:07.808Z,-2.41
2016-11-30T05:40:22.237Z,-2.42
2016-11-30T05:41:36.347Z,-2.42
2016-11-30T05:42:50.678Z,-2.4
2016-11-30T05:44:04.818Z,-2.38
2016-11-30T05:45:18.940Z,-2.36
2016-11-30T05:46:33.795Z,-2.32
2016-11-30T05:47:48.313Z,-2.28
2016-11-30T05:49:02.866Z,-2.25
2016-11-30T05:50:17.113Z,-2.22
2016-11-30T05:51:31.987Z,-2.19
2016-11-30T05:52:46.439Z,-2.16
2016-11-30T05:54:00.546Z,-2.13
2016-11-30T05:55:15.350Z,-2.11
2016-11-30T05:56:29.381Z,-2.08
2016-11-30T05:57:43.418Z,-2.09
2016-11-30T05:58:58.723Z,-2.07
2016-11-30T06:00:12.826Z,-2.04
2016-11-30T06:01:29.865Z,-2.04
2016-11-30T06:02:43.842Z,-2.02
2016-11-30T06:03:58.665Z,-2.02
2016-11-30T06:05:12.597Z,-2.02
2016-11-30T06:06:27.116Z,-2.02
2016-11-30T06:07:42.038Z,-2.01
2016-11-30T06:08:55.836Z,-2.01
2016-11-30T06:10:10.620Z,-2.02
2016-11-30T06:11:26.632Z,-2
2016-11-30T06:12:42.019Z,-2
2016-11-30T06:13:56.694Z,-1.97
2016-11-30T06:15:11.322Z,-1.93
2016-11-30T06:16:25.639Z,-1.9
2016-11-30T06:17:40.218Z,-1.89
2016-11-30T06:18:54.765Z,-1.87
2016-11-30T06:20:09.194Z,-1.86
2016-11-30T06:21:23.522Z,-1.89
2016-11-30T06:22:52.409Z,-1.92
2016-11-30T06:24:06.915Z,-1.92
2016-11-30T06:25:21.554Z,-1.92
2016-11-30T06:26:35.742Z,-1.91
2016-11-30T06:27:49.794Z,-1.9
2016-11-30T06:29:04.249Z,-1.9
2016-11-30T06:30:18.345Z,-1.95
2016-11-30T06:31:33.397Z,-2.02
2016-11-30T06:32:47.606Z,-2.07
2016-11-30T06:34:02.516Z,-2.1
2016-11-30T06:35:16.747Z,-2.14
2016-11-30T06:39:28.335Z,-2.21
2016-11-30T06:40:43.595Z,-2.23
2016-11-30T06:41:57.571Z,-2.22
2016-11-30T06:43:11.566Z,-2.21
2016-11-30T06:44:25.782Z,-2.21
2016-11-30T06:45:39.860Z,-2.2
2016-11-30T06:46:53.791Z,-2.18
2016-11-30T06:48:09.924Z,-2.15
2016-11-30T06:49:32.423Z,-2.14
2016-11-30T06:52:15.142Z,-2.18
2016-11-30T06:53:44.035Z,-2.21
2016-11-30T06:54:58.073Z,-2.23
2016-11-30T06:56:12.233Z,-2.23
2016-11-30T06:57:26.259Z,-2.25
2016-11-30T06:58:40.206Z,-2.27
2016-11-30T06:59:54.375Z,-2.28
2016-11-30T07:01:08.621Z,-2.3
2016-11-30T07:02:22.884Z,-2.32
2016-11-30T07:03:36.696Z,-2.34
2016-11-30T07:04:50.709Z,-2.37
2016-11-30T07:06:05.224Z,-2.39
2016-11-30T07:07:19.021Z,-2.41
2016-11-30T07:08:34.040Z,-2.44
2016-11-30T07:09:48.061Z,-2.47
2016-11-30T07:11:01.858Z,-2.53
2016-11-30T07:12:16.066Z,-2.55
2016-11-30T07:13:29.815Z,-2.58
2016-11-30T07:14:43.829Z,-2.6
2016-11-30T07:15:57.962Z,-2.62
2016-11-30T07:17:11.734Z,-2.61
2016-11-30T07:18:25.824Z,-2.6
2016-11-30T07:19:39.668Z,-2.59
2016-11-30T07:20:55.859Z,-2.55
2016-11-30T07:22:10.109Z,-2.54
2016-11-30T07:23:24.675Z,-2.53
2016-11-30T07:24:38.726Z,-2.49
2016-11-30T07:27:21.747Z,-2.48
2016-11-30T07:28:35.862Z,-2.46
2016-11-30T07:29:50.249Z,-2.45
2016-11-30T07:31:04.300Z,-2.44
2016-11-30T07:32:18.592Z,-2.42
2016-11-30T07:33:32.560Z,-2.41
2016-11-30T07:34:46.629Z,-2.46
2016-11-30T07:36:00.934Z,-2.47
2016-11-30T07:37:14.796Z,-2.47
2016-11-30T07:38:28.916Z,-2.44
2016-11-30T07:39:42.904Z,-2.4
2016-11-30T07:40:56.894Z,-2.35
2016-11-30T07:42:11.412Z,-2.3
2016-11-30T07:43:25.651Z,-2.25
2016-11-30T07:44:39.525Z,-2.18
2016-11-30T07:45:53.368Z,-2.1
2016-11-30T07:47:07.564Z,-2.03
2016-11-30T07:48:21.899Z,-1.98
2016-11-30T07:49:35.593Z,-1.93
2016-11-30T07:50:49.982Z,-1.88
2016-11-30T07:52:04.658Z,-1.83
2016-11-30T07:53:18.579Z,-1.77
2016-11-30T07:54:33.793Z,-1.74
2016-11-30T07:55:48.313Z,-1.72
2016-11-30T07:57:02.416Z,-1.73
2016-11-30T07:58:16.816Z,-1.73
2016-11-30T07:59:30.879Z,-1.78
2016-11-30T08:00:45.032Z,-1.81
2016-11-30T08:01:59.130Z,-1.83
2016-11-30T08:03:13.308Z,-1.84
2016-11-30T08:04:27.629Z,-1.82
2016-11-30T08:05:41.680Z,-1.79
2016-11-30T08:06:55.892Z,-1.76
2016-11-30T08:08:09.798Z,-1.71
2016-11-30T08:09:23.483Z,-1.68
2016-11-30T08:10:37.188Z,-1.7
2016-11-30T08:11:51.003Z,-1.71
2016-11-30T08:13:05.356Z,-1.74
2016-11-30T08:14:19.035Z,-1.76
2016-11-30T08:15:32.758Z,-1.76
2016-11-30T08:16:46.501Z,-1.71
2016-11-30T08:18:00.504Z,-1.65
2016-11-30T08:19:14.755Z,-1.6
2016-11-30T08:20:29.230Z,-1.52
2016-11-30T08:21:42.983Z,-1.47
2016-11-30T08:22:56.737Z,-1.43
2016-11-30T08:24:11.040Z,-1.4
2016-11-30T08:25:25.116Z,-1.37
2016-11-30T08:26:39.995Z,-1.32
2016-11-30T08:27:54.186Z,-1.26
2016-11-30T08:29:08.185Z,-1.2
2016-11-30T08:30:22.155Z,-1.15
2016-11-30T08:31:36.545Z,-1.1
2016-11-30T08:32:50.388Z,-1.06
2016-11-30T08:34:04.623Z,-1.02
2016-11-30T08:35:18.606Z,-0.95
2016-11-30T08:36:32.685Z,-0.89
2016-11-30T08:37:49.226Z,-0.81
2016-11-30T08:39:03.105Z,-0.74
2016-11-30T08:40:17.197Z,-0.66
2016-11-30T08:41:31.569Z,-0.59
2016-11-30T08:42:45.437Z,-0.55
2016-11-30T08:43:59.465Z,-0.53
2016-11-30T08:45:13.372Z,-0.51
2016-11-30T08:46:27.202Z,-0.44
2016-11-30T08:47:41.235Z,-0.39
2016-11-30T08:48:55.499Z,-0.35
2016-11-30T08:50:09.327Z,-0.28
2016-11-30T08:51:23.153Z,-0.21
2016-11-30T08:52:36.955Z,-0.13
2016-11-30T08:53:50.792Z,-0.05
2016-11-30T08:55:05.021Z,0.02
2016-11-30T08:56:19.512Z,0.1
2016-11-30T08:57:34.878Z,0.18
2016-11-30T08:58:48.882Z,0.21
2016-11-30T09:00:02.857Z,0.21
2016-11-30T09:01:16.746Z,0.23
2016-11-30T09:02:31.111Z,0.25
2016-11-30T09:03:46.714Z,0.31
2016-11-30T09:05:01.093Z,0.38
2016-11-30T09:06:15.007Z,0.42
2016-11-30T09:07:29.011Z,0.48
2016-11-30T09:08:43.391Z,0.52
2016-11-30T09:09:57.722Z,0.53
2016-11-30T09:11:11.720Z,0.55
2016-11-30T09:13:55.461Z,0.58
2016-11-30T09:15:09.830Z,0.62
2016-11-30T09:16:23.706Z,0.65
2016-11-30T09:17:38.279Z,0.67
2016-11-30T09:18:52.258Z,0.66
2016-11-30T09:20:06.569Z,0.64
2016-11-30T09:21:21.646Z,0.68
2016-11-30T09:22:36.214Z,0.7
2016-11-30T09:25:23.638Z,0.74
2016-11-30T09:26:39.253Z,0.74
2016-11-30T09:27:53.616Z,0.75
2016-11-30T09:29:07.857Z,0.8
2016-11-30T09:30:21.766Z,0.85
2016-11-30T09:31:36.255Z,0.9
2016-11-30T09:32:50.864Z,0.98
2016-11-30T09:34:04.790Z,1.01
2016-11-30T09:35:18.822Z,1.04
2016-11-30T09:36:32.877Z,1.06
2016-11-30T09:37:46.880Z,1.08
2016-11-30T09:39:01.192Z,1.09
2016-11-30T09:40:18.160Z,1.12
2016-11-30T09:41:44.011Z,1.18
2016-11-30T09:44:44.328Z,1.22
2016-11-30T09:46:10.154Z,1.22
2016-11-30T09:47:34.395Z,1.2
2016-11-30T09:49:12.952Z,1.19
2016-11-30T09:50:36.450Z,1.19
2016-11-30T09:51:58.567Z,1.19
2016-11-30T09:53:21.877Z,1.23
2016-11-30T09:54:36.216Z,1.23
2016-11-30T09:55:51.060Z,1.24
2016-11-30T09:57:08.287Z,1.28
2016-11-30T09:58:22.973Z,1.33
2016-11-30T09:59:36.691Z,1.41
2016-11-30T10:00:51.498Z,1.46
2016-11-30T10:02:05.976Z,1.54
2016-11-30T10:03:19.793Z,1.65
2016-11-30T10:04:33.570Z,1.7
2016-11-30T10:05:47.568Z,1.74
2016-11-30T10:07:01.651Z,1.79
2016-11-30T10:08:15.914Z,1.88
2016-11-30T10:09:30.099Z,1.96
2016-11-30T10:10:43.880Z,2.02
2016-11-30T10:11:57.706Z,2.04
2016-11-30T10:13:11.994Z,2.05
2016-11-30T10:14:26.603Z,2
2016-11-30T10:15:40.642Z,1.98
2016-11-30T10:17:09.175Z,1.96
2016-11-30T10:18:23.668Z,1.96
2016-11-30T10:19:37.975Z,1.96
2016-11-30T10:20:51.914Z,1.99
2016-11-30T10:22:05.717Z,2.04
2016-11-30T10:23:19.621Z,2.07
2016-11-30T10:24:33.528Z,2.1
2016-11-30T10:25:48.008Z,2.12
2016-11-30T10:27:01.882Z,2.14
2016-11-30T10:28:15.841Z,2.16
2016-11-30T10:29:29.533Z,2.19
2016-11-30T10:30:43.501Z,2.19
2016-11-30T10:31:57.722Z,2.19
2016-11-30T10:33:11.906Z,2.21
2016-11-30T10:34:25.568Z,2.21
2016-11-30T10:35:39.702Z,2.19
2016-11-30T10:36:53.388Z,2.2
2016-11-30T10:38:07.774Z,2.25
2016-11-30T10:39:21.819Z,2.31
2016-11-30T10:40:35.928Z,2.37
2016-11-30T10:41:49.965Z,2.45
2016-11-30T10:43:03.706Z,2.5
2016-11-30T10:44:18.242Z,2.55
2016-11-30T10:45:32.268Z,2.61
2016-11-30T10:46:46.218Z,2.64
2016-11-30T10:48:00.588Z,2.62
2016-11-30T10:49:14.262Z,2.58
2016-11-30T10:50:28.974Z,2.57
2016-11-30T10:51:42.682Z,2.55
2016-11-30T10:52:56.502Z,2.52
2016-11-30T10:54:10.562Z,2.54
2016-11-30T10:55:24.486Z,2.56
2016-11-30T10:56:39.180Z,2.6
2016-11-30T10:57:52.874Z,2.6
2016-11-30T10:59:06.658Z,2.63
2016-11-30T11:00:20.503Z,2.65
2016-11-30T11:01:34.994Z,2.72
2016-11-30T11:02:49.261Z,2.76
2016-11-30T11:04:03.203Z,2.83
2016-11-30T11:05:17.310Z,2.89
2016-11-30T11:06:31.540Z,3
2016-11-30T11:07:45.514Z,3.09
2016-11-30T11:08:59.450Z,3.17
2016-11-30T11:10:13.680Z,3.25
2016-11-30T11:11:27.622Z,3.3
2016-11-30T11:12:41.562Z,3.34
2016-11-30T11:13:58.428Z,3.37
2016-11-30T11:15:13.486Z,3.4
2016-11-30T11:16:27.925Z,3.45
2016-11-30T11:17:41.890Z,3.52
2016-11-30T11:18:55.744Z,3.6
2016-11-30T11:20:10.998Z,3.62
2016-11-30T11:22:54.604Z,3.68
2016-11-30T11:24:08.929Z,3.68
2016-11-30T11:25:23.403Z,3.68
2016-11-30T11:26:37.134Z,3.68
2016-11-30T11:27:50.894Z,3.68
2016-11-30T11:29:04.850Z,3.71
2016-11-30T11:30:19.235Z,3.72
2016-11-30T11:31:33.567Z,3.78
2016-11-30T11:32:47.545Z,3.82
2016-11-30T11:34:02.094Z,3.81
2016-11-30T11:35:30.628Z,3.79
2016-11-30T11:36:44.624Z,3.78
2016-11-30T11:37:58.924Z,3.74
2016-11-30T11:39:13.299Z,3.71
2016-11-30T11:40:27.856Z,3.69
2016-11-30T11:41:41.981Z,3.68
2016-11-30T11:42:56.266Z,3.68
2016-11-30T11:44:11.464Z,3.69
2016-11-30T11:45:26.474Z,3.7
2016-11-30T11:46:40.871Z,3.72
2016-11-30T11:47:55.173Z,3.77
2016-11-30T11:49:09.891Z,3.84
2016-11-30T11:50:24.377Z,3.88
2016-11-30T11:51:39.818Z,3.92
2016-11-30T11:52:54.592Z,3.96
2016-11-30T11:54:09.868Z,4.01
2016-11-30T11:55:27.418Z,4.07
2016-11-30T11:56:58.448Z,4.16
2016-11-30T11:58:14.646Z,4.23
2016-11-30T11:59:30.464Z,4.28
2016-11-30T12:00:46.985Z,4.32
2016-11-30T12:02:02.183Z,4.34
2016-11-30T12:03:17.899Z,4.32
2016-11-30T12:04:32.932Z,4.34
2016-11-30T12:05:49.163Z,4.34
2016-11-30T12:07:03.845Z,4.37
2016-11-30T12:08:18.059Z,4.39
2016-11-30T12:09:33.113Z,4.43
2016-11-30T12:10:51.175Z,4.48
2016-11-30T12:13:36.998Z,4.52
2016-11-30T12:14:52.453Z,4.52
2016-11-30T12:16:09.456Z,4.52
2016-11-30T12:17:24.108Z,4.51
2016-11-30T12:18:38.653Z,4.5
2016-11-30T12:19:53.645Z,4.51
2016-11-30T12:21:08.612Z,4.45
2016-11-30T12:22:24.795Z,4.41
2016-11-30T12:23:39.720Z,4.37
2016-11-30T12:24:54.055Z,4.35
2016-11-30T12:26:08.898Z,4.34
2016-11-30T12:27:22.838Z,4.36
2016-11-30T12:28:38.589Z,4.38
2016-11-30T12:29:52.613Z,4.35
2016-11-30T12:31:07.030Z,4.36
2016-11-30T12:32:23.906Z,4.35
2016-11-30T12:33:38.440Z,4.36
2016-11-30T12:34:52.473Z,4.36
2016-11-30T12:36:10.093Z,4.34
2016-11-30T12:37:24.348Z,4.28
2016-11-30T12:38:39.311Z,4.25
2016-11-30T12:39:53.786Z,4.26
2016-11-30T12:41:08.024Z,4.25
2016-11-30T12:42:22.122Z,4.27
2016-11-30T12:43:36.451Z,4.3
2016-11-30T12:44:51.004Z,4.31
2016-11-30T12:46:05.177Z,4.33
2016-11-30T12:47:19.735Z,4.33
2016-11-30T12:48:33.800Z,4.35
2016-11-30T12:49:48.242Z,4.36
2016-11-30T12:52:30.771Z,4.32
2016-11-30T12:53:46.053Z,4.31
2016-11-30T12:55:00.844Z,4.28
2016-11-30T12:56:15.091Z,4.27
2016-11-30T12:57:44.595Z,4.26
2016-11-30T12:58:58.873Z,4.26
2016-11-30T13:00:13.008Z,4.26
2016-11-30T13:01:27.765Z,4.27
2016-11-30T13:02:41.850Z,4.28
2016-11-30T13:03:56.145Z,4.27
2016-11-30T13:05:10.275Z,4.29
2016-11-30T13:06:24.453Z,4.32
2016-11-30T13:07:38.797Z,4.34
2016-11-30T13:08:53.136Z,4.37
2016-11-30T13:10:06.944Z,4.42
2016-11-30T13:11:20.991Z,4.44
2016-11-30T13:12:34.836Z,4.47
2016-11-30T13:13:48.985Z,4.5
2016-11-30T13:15:03.123Z,4.55
2016-11-30T13:16:17.295Z,4.59
2016-11-30T13:17:31.656Z,4.64
2016-11-30T13:18:45.823Z,4.69
2016-11-30T13:19:59.785Z,4.7
2016-11-30T13:21:13.503Z,4.75
2016-11-30T13:22:27.484Z,4.81
2016-11-30T13:23:41.739Z,4.88
2016-11-30T13:24:55.554Z,4.93
2016-11-30T13:26:09.886Z,4.98
2016-11-30T13:27:23.689Z,5.02
2016-11-30T13:28:37.904Z,5.09
2016-11-30T13:29:52.634Z,5.13
2016-11-30T13:31:06.631Z,5.15
2016-11-30T13:32:21.203Z,5.21
2016-11-30T13:33:34.873Z,5.3
2016-11-30T13:34:49.245Z,5.4
2016-11-30T13:36:18.363Z,5.46
2016-11-30T13:37:32.280Z,5.54
2016-11-30T13:38:46.100Z,5.59
2016-11-30T13:40:00.523Z,5.64
2016-11-30T13:41:14.232Z,5.69
2016-11-30T13:42:28.473Z,5.77
2016-11-30T13:43:42.299Z,5.81
2016-11-30T13:44:56.034Z,5.87
2016-11-30T13:46:10.457Z,5.88
2016-11-30T13:47:24.652Z,5.9
2016-11-30T13:48:38.928Z,5.9
2016-11-30T13:49:54.805Z,5.92
2016-11-30T13:51:08.917Z,5.9
2016-11-30T13:52:22.787Z,5.88
2016-11-30T13:53:36.675Z,5.87
2016-11-30T13:54:50.826Z,5.81
2016-11-30T13:56:04.874Z,5.8
2016-11-30T13:57:19.124Z,5.77
2016-11-30T13:58:32.981Z,5.79
2016-11-30T13:59:47.140Z,5.78
2016-11-30T14:01:01.379Z,5.75
2016-11-30T14:02:15.663Z,5.75
2016-11-30T14:04:59.045Z,5.72
2016-11-30T14:06:12.766Z,5.71
2016-11-30T14:07:26.754Z,5.67
2016-11-30T14:08:40.547Z,5.63
2016-11-30T14:09:54.614Z,5.64
2016-11-30T14:11:08.828Z,5.62
2016-11-30T14:12:23.050Z,5.61
2016-11-30T14:13:36.991Z,5.55
2016-11-30T14:14:50.813Z,5.53
2016-11-30T14:16:05.742Z,5.54
2016-11-30T14:17:20.085Z,5.54
2016-11-30T14:18:34.224Z,5.56
2016-11-30T14:19:48.862Z,5.6
2016-11-30T14:21:02.568Z,5.64
2016-11-30T14:22:16.748Z,5.67
2016-11-30T14:23:30.725Z,5.71
2016-11-30T14:24:44.965Z,5.72
2016-11-30T14:25:59.854Z,5.75
2016-11-30T14:27:13.941Z,5.8
2016-11-30T14:28:29.322Z,5.83
2016-11-30T14:29:43.269Z,5.82
2016-11-30T14:30:57.466Z,5.85
2016-11-30T14:32:11.730Z,5.88
2016-11-30T14:33:25.694Z,5.93
2016-11-30T14:34:40.078Z,5.97
2016-11-30T14:35:54.655Z,5.98
2016-11-30T14:37:08.935Z,5.98
2016-11-30T14:38:23.709Z,6.01
2016-11-30T14:39:37.573Z,6.03
2016-11-30T14:40:51.734Z,6.05
2016-11-30T14:42:05.500Z,6.05
2016-11-30T14:43:19.835Z,6.04
2016-11-30T14:44:34.426Z,6.03
2016-11-30T14:45:48.350Z,6.04
2016-11-30T14:47:02.466Z,6.04
2016-11-30T14:48:16.261Z,6.02
2016-11-30T14:49:30.282Z,6
2016-11-30T14:50:45.080Z,5.99
2016-11-30T14:51:59.120Z,5.98
2016-11-30T14:53:13.132Z,5.96
2016-11-30T14:54:27.003Z,5.97
2016-11-30T14:55:40.999Z,5.93
2016-11-30T14:56:54.928Z,5.9
2016-11-30T15:01:06.556Z,5.72
2016-11-30T15:02:20.950Z,5.71
2016-11-30T15:03:34.712Z,5.69
2016-11-30T15:04:49.147Z,5.66
2016-11-30T15:06:03.215Z,5.66
2016-11-30T15:07:17.155Z,5.63
2016-11-30T15:08:33.617Z,5.58
2016-11-30T15:09:47.646Z,5.54
2016-11-30T15:11:01.338Z,5.54
2016-11-30T15:12:15.472Z,5.54
2016-11-30T15:13:29.745Z,5.53
2016-11-30T15:14:43.798Z,5.51
2016-11-30T15:15:57.888Z,5.46
2016-11-30T15:17:12.096Z,5.43
2016-11-30T15:20:09.986Z,5.31
2016-11-30T15:21:23.788Z,5.27
2016-11-30T15:22:38.311Z,5.23
2016-11-30T15:23:52.217Z,5.17
2016-11-30T15:25:06.125Z,5.11
2016-11-30T15:26:20.544Z,5.05
2016-11-30T15:27:36.400Z,5.02
2016-11-30T15:28:50.871Z,5.01
2016-11-30T15:30:04.895Z,4.99
2016-11-30T15:31:18.773Z,4.95
2016-11-30T15:32:33.346Z,4.95
2016-11-30T15:33:47.506Z,4.94
2016-11-30T15:35:01.979Z,4.97
2016-11-30T15:36:16.368Z,5
2016-11-30T15:37:30.832Z,5.01
2016-11-30T15:38:45.736Z,4.98
2016-11-30T15:39:59.748Z,4.94
2016-11-30T15:41:14.325Z,4.89
2016-11-30T15:42:29.344Z,4.88
2016-11-30T15:43:44.115Z,4.83
2016-11-30T15:44:58.440Z,4.78
2016-11-30T15:46:12.305Z,4.75
2016-11-30T15:47:27.460Z,4.7
2016-11-30T15:48:41.320Z,4.65
2016-11-30T15:49:54.991Z,4.63
2016-11-30T15:51:09.422Z,4.65
2016-11-30T15:52:23.255Z,4.67
2016-11-30T15:53:37.429Z,4.68
2016-11-30T15:54:51.223Z,4.69
2016-11-30T15:56:05.277Z,4.7
2016-11-30T15:57:19.655Z,4.73
2016-11-30T15:58:33.520Z,4.75
2016-11-30T15:59:47.636Z,4.81
2016-11-30T16:01:01.469Z,4.86
2016-11-30T16:02:15.281Z,4.88
2016-11-30T16:03:29.386Z,4.89
2016-11-30T16:04:43.393Z,4.9
2016-11-30T16:05:57.643Z,4.93
2016-11-30T16:07:11.619Z,4.94
2016-11-30T16:08:25.756Z,4.94
2016-11-30T16:09:40.319Z,4.95
2016-11-30T16:10:54.294Z,4.96
2016-11-30T16:12:08.336Z,4.94
2016-11-30T16:13:22.922Z,4.93
2016-11-30T16:14:37.328Z,4.89
2016-11-30T16:15:52.296Z,4.88
2016-11-30T16:17:06.272Z,4.86
2016-11-30T16:18:20.350Z,4.81
2016-11-30T16:19:34.798Z,4.76
2016-11-30T16:20:49.127Z,4.7
2016-11-30T16:22:18.324Z,4.65
2016-11-30T16:23:32.675Z,4.63
2016-11-30T16:24:46.711Z,4.58
2016-11-30T16:26:03.306Z,4.57
2016-11-30T16:27:20.256Z,4.55
2016-11-30T16:28:41.257Z,4.53
2016-11-30T16:29:56.088Z,4.48
2016-11-30T16:31:10.302Z,4.47
2016-11-30T16:32:24.421Z,4.49
2016-11-30T16:33:38.366Z,4.48
2016-11-30T16:34:52.991Z,4.5
2016-11-30T16:36:08.117Z,4.48
2016-11-30T16:37:22.690Z,4.47
2016-11-30T16:38:37.574Z,4.47
2016-11-30T16:39:52.059Z,4.44
2016-11-30T16:41:06.684Z,4.45
2016-11-30T16:42:20.343Z,4.43
2016-11-30T16:43:34.350Z,4.38
2016-11-30T16:44:48.828Z,4.35
2016-11-30T16:46:03.233Z,4.35
2016-11-30T16:47:18.237Z,4.34
2016-11-30T16:48:32.207Z,4.32
2016-11-30T16:49:46.022Z,4.3
2016-11-30T16:51:00.565Z,4.29
2016-11-30T16:52:15.095Z,4.28
2016-11-30T16:53:29.685Z,4.3